Terminal Aerodrome Forecast
Issued by NWS

Home | Current Version | Previous Version | Text Only | Print | Product List | Glossary On
Versions: 1 2 3 4 5 6 7 8 9 10 11 12 13 14
267
FTUS41 KBGM 270526
TAFELM
TAF
KELM 270526Z 2706/2806 VRB03KT P6SM OVC090
     FM271600 VRB03KT P6SM OVC025
     FM271900 14008KT P6SM BKN025 PROB30 2719/2723 5SM TSRA OVC025CB
     FM272300 16006KT P6SM BKN015=

USA.gov is the U.S. government's official web portal to all federal, state and local government web resources and services.